This is the latest recevied weather packets stored in our database for station/object S54L-12. If no packets are shown the sender has not sent any weather packets the latest 10 day(s).
| Time | Temp. | Humidity | Pressure | Rain* | Wind** | Luminosity | Snow |
|---|---|---|---|---|---|---|---|
| 1777108377 | 22.78° C | 24% | 922 hPa | - | - | - | - |
| 1777107477 | 24.44° C | 27% | 922 hPa | - | - | - | - |
| 1777106577 | 27.22° C | 21% | 922.1 hPa | - | - | - | - |
| 1777105677 | 27.22° C | 20% | 922.1 hPa | - | - | - | - |
| 1777104777 | 28.33° C | 19% | 922.2 hPa | - | - | - | - |
| 1777103877 | 30° C | 19% | 922.3 hPa | - | - | - | - |
| 1777102977 | 31.11° C | 20% | 922.2 hPa | - | - | - | - |
| 1777102077 | 30.56° C | 18% | 922.3 hPa | - | - | - | - |
| 1777101177 | 30.56° C | 20% | 922.3 hPa | - | - | - | - |
| 1777100277 | 28.89° C | 23% | 922.3 hPa | - | - | - | - |
| 1777099377 | 26.67° C | 21% | 922.4 hPa | - | - | - | - |
| 1777098477 | 27.78° C | 25% | 922.2 hPa | - | - | - | - |
| 1777097577 | 26.11° C | 27% | 922.2 hPa | - | - | - | - |
| 1777096677 | 21.11° C | 37% | 922.2 hPa | - | - | - | - |
| 1777095777 | 13.33° C | 54% | 922.3 hPa | - | - | - | - |
| 1777094877 | 5.56° C | 83% | 922.3 hPa | - | - | - | - |
| 1777093976 | 4.44° C | 86% | 922.3 hPa | - | - | - | - |
| 1777093076 | 3.33° C | 88% | 922.2 hPa | - | - | - | - |
| 1777092176 | 2.78° C | 89% | 922.1 hPa | - | - | - | - |
| 1777091276 | 2.78° C | 90% | 922 hPa | - | - | - | - |
| 1777090376 | 2.22° C | 90% | 921.8 hPa | - | - | - | - |
| 1777089476 | 2.78° C | 90% | 921.7 hPa | - | - | - | - |
| 1777088576 | 2.78° C | 90% | 921.7 hPa | - | - | - | - |
| 1777087676 | 2.78° C | 90% | 921.7 hPa | - | - | - | - |
| 1777086780 | 2.78° C | 90% | 921.7 hPa | - | - | - | - |
* Rain since midnight (hover to see other rain measurements)
** Current wind speed in m/s (hover to see current wind gust speed)